Portada
METAR-TAF:

METAR-TAF

Aeroports :

Tingo María, Perú

latitud: 09-17-15S, longitud: 076-00-18W, altitud: 654 m

Observació

L'informe es va fer fa 10 minuts, a les 19:00 UTC
Vent 3 kt del Nord/Nord-Est
Temperatura 27°C
Humitat 66%
Pressió 1016 hPa
Visibilitat 10 km o més
Núvols disperses a una alçada de 2500 ft
Cel cobert a una alçada de 8000 ft

METAR: SPGM 211900Z 02003KT 9999 SCT025 OVC080 27/20 Q1016 RMK PP000

Hora: 14:10 (19:10 UTC)

Pronòstic

L'informe es va fer fa 2 hores i 0 minuts, a les 17:10 UTC
Pronòstic vàlid del 21 a les 18 UTC al 22 a les 18 UTC
Vent 3 kt del Nord/Nord-Est
Visibilitat 10 km o més
Escasses núvols a una alçada de 3000 ft
Cel ennuvolat a una alçada de 9000 ft
A partir de les 22 a les 0300 UTC
Vent 2 kt amb direcció variable
Visibilitat 10 km o més
Escasses núvols a una alçada de 4000 ft
Cel ennuvolat a una alçada de 10000 ft

TAF: SPGM 211710Z 2118/2218 03003KT 9999 FEW030 BKN090 TX32/2119Z TN21/2211Z FM220300 VRB02KT 9999 FEW040 BKN100

Observacions i pronòstics meteorològics de més de 4000 aeroports (METAR i TAF).

Les estacions disponibles són els punts grocs i vermells al mapa.

Posi el ratolí al punt desitjat per veure el nom de l'estació.

Feu clic per veure les observacions i els pronòstics meteorològics.

Per canviar el mapa: feu clic els botons verds amb una creu de color negre per apropar; al botó verd amb un guió per allunyar la imatge; o en les fletxes verdes per a mapes adjacents.


METAR-TAF: